Time;durP1;ratioP1;P1;durP2;ratioP2;P2;SDS_P1;SDS_P2;PMS_P1;PMS_P2;Temp;Humidity;BMP_temperature;BMP_pressure;BME280_temperature;BME280_humidity;BME280_pressure;Samples;Min_cycle;Max_cycle;Signal;HPM_P1;HPM_P2
2022/10/20 00:00:05;;;;;;;;;3.00;3.00;;;;;22.14;53.08;102076.46;105615;1281;20402;-54
2022/10/20 00:02:52;;;;;;;;;3.00;3.00;;;;;22.14;53.00;102079.02;105539;1281;21325;-54
2022/10/20 00:05:20;;;;;;;;;2.00;2.00;;;;;22.15;53.01;102082.61;105581;1289;19637;-54
2022/10/20 00:07:47;;;;;;;;;4.00;3.00;;;;;22.14;53.00;102081.45;105534;1281;20310;-57
2022/10/20 00:10:14;;;;;;;;;3.00;3.00;;;;;22.14;52.94;102080.70;105544;1288;23752;-57
2022/10/20 00:12:41;;;;;;;;;3.00;3.00;;;;;22.14;53.10;102085.24;105556;1287;19604;-55
2022/10/20 00:15:08;;;;;;;;;2.00;2.00;;;;;22.13;52.85;102083.64;105535;1282;17985;-56
2022/10/20 00:17:36;;;;;;;;;2.00;2.00;;;;;22.14;52.85;102085.27;105596;1282;18993;-54
2022/10/20 00:20:03;;;;;;;;;3.00;3.00;;;;;22.14;52.89;102090.56;105517;1279;21720;-55
2022/10/20 00:22:30;;;;;;;;;3.00;3.00;;;;;22.13;52.95;102086.44;105428;1291;19626;-58
2022/10/20 00:24:57;;;;;;;;;3.00;2.00;;;;;22.13;52.95;102086.23;105594;1298;18695;-57
2022/10/20 00:27:25;;;;;;;;;3.00;3.00;;;;;22.13;52.68;102085.52;105585;1282;18104;-56
2022/10/20 00:29:52;;;;;;;;;2.00;2.00;;;;;22.14;52.79;102086.36;105511;1291;19280;-57
2022/10/20 00:32:19;;;;;;;;;2.00;2.00;;;;;22.13;52.92;102087.48;105666;1282;20635;-54
2022/10/20 00:34:46;;;;;;;;;3.00;3.00;;;;;22.12;52.84;102088.48;105554;1297;19439;-56
2022/10/20 00:37:14;;;;;;;;;;;;;;;22.13;52.72;102084.08;105684;1282;19123;-59
2022/10/20 00:39:41;;;;;;;;;2.00;2.00;;;;;22.13;52.60;102084.83;105698;1301;22097;-58
2022/10/20 00:42:08;;;;;;;;;2.00;2.00;;;;;22.12;52.68;102080.65;105642;1292;19279;-57
2022/10/20 00:44:35;;;;;;;;;2.00;2.00;;;;;22.13;52.64;102080.25;105554;1282;19361;-57
2022/10/20 00:47:02;;;;;;;;;3.00;3.00;;;;;22.14;52.66;102078.55;105539;1289;18470;-57
2022/10/20 00:49:30;;;;;;;;;3.00;3.00;;;;;22.14;52.59;102077.63;105518;1289;20043;-56
2022/10/20 00:51:57;;;;;;;;;5.00;5.00;;;;;22.13;52.63;102077.83;105493;1282;22690;-54
2022/10/20 00:54:24;;;;;;;;;3.00;3.00;;;;;22.13;52.66;102073.32;105554;1282;26503;-56
2022/10/20 00:56:52;;;;;;;;;3.00;2.00;;;;;22.13;52.72;102069.16;105497;1297;19655;-57
2022/10/20 00:59:19;;;;;;;;;3.00;3.00;;;;;22.12;52.46;102064.67;105541;1282;17762;-55
2022/10/20 01:01:46;;;;;;;;;2.00;2.00;;;;;22.12;52.41;102068.69;105547;1291;18610;-57
2022/10/20 01:04:13;;;;;;;;;2.00;2.00;;;;;22.12;52.47;102068.81;105492;1275;19565;-58
2022/10/20 01:06:40;;;;;;;;;3.00;3.00;;;;;22.12;52.43;102067.94;105573;1297;18106;-56
2022/10/20 01:09:08;;;;;;;;;5.00;3.00;;;;;22.11;52.48;102063.27;105588;1289;18763;-55
2022/10/20 01:11:35;;;;;;;;;3.00;3.00;;;;;22.11;52.41;102061.13;105654;1281;19260;-54
2022/10/20 01:14:02;;;;;;;;;3.00;3.00;;;;;22.12;52.36;102055.25;105440;1297;18133;-56
2022/10/20 01:16:29;;;;;;;;;2.00;2.00;;;;;22.11;52.44;102044.92;105609;1281;20062;-58
2022/10/20 01:18:57;;;;;;;;;3.00;3.00;;;;;22.11;52.27;102041.30;105679;1289;20606;-58
2022/10/20 01:21:24;;;;;;;;;3.00;3.00;;;;;22.10;52.43;102046.83;105579;1282;19212;-56
2022/10/20 01:23:51;;;;;;;;;3.00;2.00;;;;;22.11;52.27;102045.12;105539;1281;18488;-57
2022/10/20 01:26:18;;;;;;;;;5.00;3.50;;;;;22.11;52.48;102042.39;105560;1288;19958;-57
2022/10/20 01:28:46;;;;;;;;;3.00;3.00;;;;;22.10;52.22;102043.00;105529;1297;18115;-55
2022/10/20 01:31:13;;;;;;;;;2.50;2.00;;;;;22.10;52.36;102038.77;105607;1285;22475;-58
2022/10/20 01:33:40;;;;;;;;;2.00;2.00;;;;;22.10;52.45;102035.52;105609;1281;19658;-58
2022/10/20 01:36:07;;;;;;;;;2.00;2.00;;;;;22.10;52.29;102030.63;105587;1291;19775;-57
2022/10/20 01:38:34;;;;;;;;;;;;;;;22.10;52.28;102031.52;105517;1279;19144;-53
2022/10/20 01:41:02;;;;;;;;;3.00;3.00;;;;;22.11;52.17;102024.39;105560;1294;19834;-52
2022/10/20 01:43:29;;;;;;;;;3.00;3.00;;;;;22.10;52.17;102022.79;105543;1282;17794;-55
2022/10/20 01:45:56;;;;;;;;;3.00;3.00;;;;;22.11;52.13;102023.27;105622;1291;20033;-58
2022/10/20 01:48:24;;;;;;;;;2.50;2.50;;;;;22.11;52.29;102019.83;105653;1281;18097;-55
2022/10/20 01:50:51;;;;;;;;;2.50;2.00;;;;;22.10;52.09;102021.01;105626;1281;21670;-57
2022/10/20 01:53:18;;;;;;;;;3.00;3.00;;;;;22.10;52.06;102021.55;105506;1282;18514;-56
2022/10/20 01:55:45;;;;;;;;;3.00;3.00;;;;;22.10;52.14;102020.98;105695;1289;19301;-54
2022/10/20 01:58:12;;;;;;;;;2.00;2.00;;;;;22.10;52.08;102017.91;105566;1289;20186;-56
2022/10/20 02:00:40;;;;;;;;;3.00;3.00;;;;;22.09;51.97;102020.12;105708;1275;20178;-57
2022/10/20 02:03:07;;;;;;;;;3.00;3.00;;;;;22.10;51.98;102016.98;105666;1301;18330;-55
2022/10/20 02:05:34;;;;;;;;;3.00;3.00;;;;;22.10;52.01;102013.71;105709;1297;18256;-56
2022/10/20 02:08:01;;;;;;;;;3.00;2.00;;;;;22.09;51.89;102009.39;105684;1283;19948;-54
2022/10/20 02:10:29;;;;;;;;;3.00;3.00;;;;;22.10;52.21;102012.61;105700;1289;22003;-55
2022/10/20 02:12:56;;;;;;;;;3.00;3.00;;;;;22.10;52.03;102016.77;105732;1298;19202;-56
2022/10/20 02:15:23;;;;;;;;;2.00;2.00;;;;;22.10;52.06;102009.34;105690;1298;19895;-55
2022/10/20 02:17:50;;;;;;;;;5.00;3.00;;;;;22.10;51.95;102010.84;105677;1289;21674;-57
2022/10/20 02:20:17;;;;;;;;;3.00;2.00;;;;;22.10;51.96;102008.79;105651;1289;21474;-56
2022/10/20 02:22:45;;;;;;;;;2.00;2.00;;;;;22.10;51.91;102009.69;105682;1298;20724;-57
2022/10/20 02:25:12;;;;;;;;;3.00;3.00;;;;;22.10;51.82;102010.09;105679;1280;18131;-56
2022/10/20 02:27:39;;;;;;;;;3.50;3.50;;;;;22.10;52.08;102012.65;105682;1272;19305;-57
2022/10/20 02:30:06;;;;;;;;;3.00;3.00;;;;;22.09;51.94;102009.21;105644;1289;19861;-57
2022/10/20 02:32:34;;;;;;;;;2.00;2.00;;;;;22.10;52.02;102014.30;105635;1288;20085;-57
2022/10/20 02:35:01;;;;;;;;;3.00;2.00;;;;;22.09;51.94;102014.86;105699;1297;18113;-57
2022/10/20 02:37:28;;;;;;;;;;;;;;;22.09;51.85;102016.55;105663;1275;20337;-54
2022/10/20 02:39:55;;;;;;;;;2.00;2.00;;;;;22.08;51.97;102014.27;105694;1279;19132;-58
2022/10/20 02:42:23;;;;;;;;;4.00;4.00;;;;;22.09;51.88;102010.00;105655;1289;30295;-56
2022/10/20 02:44:50;;;;;;;;;3.00;3.00;;;;;22.08;51.88;102005.65;105699;1297;20013;-57
2022/10/20 02:47:19;;;;;;;;;3.00;3.00;;;;;22.08;51.72;102007.55;105660;1281;23322;-56
2022/10/20 02:49:47;;;;;;;;;3.00;3.00;;;;;22.08;51.90;102010.25;105573;1281;17945;-54
2022/10/20 02:52:14;;;;;;;;;2.00;2.00;;;;;22.09;51.84;102014.91;105736;1284;20061;-56
2022/10/20 02:54:41;;;;;;;;;2.00;2.00;;;;;22.08;51.68;102014.99;105724;1297;18281;-55
2022/10/20 02:57:08;;;;;;;;;3.00;3.00;;;;;22.08;51.70;102011.73;105682;1281;19595;-55
2022/10/20 02:59:36;;;;;;;;;3.00;3.00;;;;;22.07;51.76;102014.70;105693;1281;18506;-53
2022/10/20 03:02:03;;;;;;;;;3.00;2.50;;;;;22.08;51.63;102017.66;105670;1289;21840;-59
2022/10/20 03:04:30;;;;;;;;;3.00;3.00;;;;;22.07;51.52;102021.81;105639;1282;19323;-54
2022/10/20 03:06:57;;;;;;;;;2.00;2.00;;;;;22.08;51.80;102020.23;105701;1297;18590;-56
2022/10/20 03:09:25;;;;;;;;;3.50;3.50;;;;;22.08;51.74;102019.74;105673;1283;20507;-55
2022/10/20 03:11:52;;;;;;;;;5.00;2.00;;;;;22.07;51.71;102024.16;105664;1289;22203;-57
2022/10/20 03:14:19;;;;;;;;;2.00;2.00;;;;;22.07;51.76;102023.43;105692;1285;18513;-56
2022/10/20 03:16:46;;;;;;;;;3.00;2.00;;;;;22.07;51.62;102024.18;105684;1297;19859;-56
2022/10/20 03:19:13;;;;;;;;;2.00;2.00;;;;;22.08;51.56;102028.66;105671;1304;17753;-54
2022/10/20 03:21:41;;;;;;;;;3.50;3.00;;;;;22.07;51.63;102027.82;105662;1289;20324;-56
2022/10/20 03:24:08;;;;;;;;;;;;;;;22.06;51.59;102024.30;105685;1291;19595;-57
2022/10/20 03:26:35;;;;;;;;;2.00;2.00;;;;;22.07;51.48;102026.36;105670;1297;21250;-54
2022/10/20 03:29:02;;;;;;;;;2.50;2.50;;;;;22.07;51.60;102020.69;105705;1297;20139;-57
2022/10/20 03:31:30;;;;;;;;;4.00;3.00;;;;;22.07;51.59;102019.11;105715;1281;18107;-56
2022/10/20 03:33:57;;;;;;;;;2.00;2.00;;;;;22.07;51.56;102021.52;105695;1297;17803;-55
2022/10/20 03:36:24;;;;;;;;;;;;;;;22.06;51.53;102025.70;105684;1282;20121;-55
2022/10/20 03:38:51;;;;;;;;;2.00;2.00;;;;;22.07;51.65;102029.32;105689;1282;18134;-55
2022/10/20 03:41:19;;;;;;;;;3.00;2.00;;;;;22.06;51.54;102028.64;105723;1281;19691;-57
2022/10/20 03:43:46;;;;;;;;;2.00;2.00;;;;;22.07;51.56;102032.74;105540;1297;18718;-56
2022/10/20 03:46:13;;;;;;;;;3.00;3.00;;;;;22.06;51.51;102033.90;105749;1298;21648;-56
2022/10/20 03:48:40;;;;;;;;;;;;;;;22.05;51.48;102038.95;105622;1295;22850;-54
2022/10/20 03:51:08;;;;;;;;;2.00;2.00;;;;;22.06;51.30;102044.70;105676;1284;20094;-55
2022/10/20 03:53:35;;;;;;;;;2.00;2.00;;;;;22.06;51.27;102041.77;105666;1297;19436;-54
2022/10/20 03:56:02;;;;;;;;;3.00;3.00;;;;;22.05;51.16;102038.55;105696;1283;19273;-57
2022/10/20 03:58:30;;;;;;;;;3.00;3.00;;;;;22.04;51.30;102037.58;105693;1282;20561;-56
2022/10/20 04:00:57;;;;;;;;;2.00;2.00;;;;;22.05;51.29;102038.61;105702;1286;20876;-57
2022/10/20 04:03:24;;;;;;;;;3.00;2.00;;;;;22.03;51.27;102036.03;105705;1275;18130;-56
2022/10/20 04:05:51;;;;;;;;;2.50;2.50;;;;;22.04;51.11;102042.18;105706;1297;19963;-55
2022/10/20 04:08:19;;;;;;;;;3.00;2.33;;;;;22.03;50.92;102038.26;105715;1298;19757;-57
2022/10/20 04:10:46;;;;;;;;;3.00;3.00;;;;;22.03;50.97;102037.88;105489;1298;21676;-53
2022/10/20 04:13:13;;;;;;;;;3.00;3.00;;;;;22.03;50.84;102035.66;105686;1297;18510;-56
2022/10/20 04:15:40;;;;;;;;;3.00;3.00;;;;;22.04;51.01;102031.43;105661;1282;18181;-56
2022/10/20 04:18:08;;;;;;;;;3.00;3.00;;;;;22.04;50.90;102026.85;105678;1288;30409;-56
2022/10/20 04:20:35;;;;;;;;;5.00;3.00;;;;;22.04;50.76;102026.13;105676;1288;21011;-57
2022/10/20 04:23:02;;;;;;;;;2.00;2.00;;;;;22.04;50.79;102025.16;105685;1271;20371;-57
2022/10/20 04:25:29;;;;;;;;;3.00;3.00;;;;;22.04;50.72;102022.63;105705;1282;19765;-55
2022/10/20 04:27:56;;;;;;;;;3.00;3.00;;;;;22.06;50.78;102023.95;105721;1296;20152;-56
2022/10/20 04:30:24;;;;;;;;;3.00;3.00;;;;;22.03;50.85;102019.83;105706;1289;19740;-57
2022/10/20 04:32:51;;;;;;;;;3.00;3.00;;;;;22.02;50.85;102025.55;105676;1289;20478;-56
2022/10/20 04:35:18;;;;;;;;;3.00;3.00;;;;;22.03;50.69;102023.65;105634;1297;21956;-54
2022/10/20 04:37:45;;;;;;;;;4.00;3.00;;;;;22.02;50.70;102026.33;105712;1282;19851;-58
2022/10/20 04:40:13;;;;;;;;;3.00;3.00;;;;;22.01;50.74;102021.14;105717;1291;19268;-56
2022/10/20 04:42:40;;;;;;;;;2.00;2.00;;;;;22.02;50.77;102021.08;105649;1297;22676;-53
2022/10/20 04:45:07;;;;;;;;;5.50;3.00;;;;;22.00;50.63;102018.14;105660;1292;18137;-58
2022/10/20 04:47:36;;;;;;;;;3.00;3.00;;;;;22.00;50.77;102019.94;105640;1279;19475;-57
2022/10/20 04:50:04;;;;;;;;;3.00;2.00;;;;;22.02;50.68;102021.59;105660;1282;22210;-56
2022/10/20 04:52:31;;;;;;;;;5.00;5.00;;;;;22.03;50.72;102021.15;105641;1283;18139;-57
2022/10/20 04:54:58;;;;;;;;;3.00;3.00;;;;;22.02;50.73;102020.33;105733;1291;19340;-56
2022/10/20 04:57:25;;;;;;;;;3.00;3.00;;;;;22.02;50.71;102019.91;105672;1289;19289;-53
2022/10/20 04:59:53;;;;;;;;;4.00;4.00;;;;;22.03;50.68;102019.68;105689;1282;20605;-56
2022/10/20 05:02:20;;;;;;;;;3.00;3.00;;;;;22.03;50.43;102024.39;105654;1282;17812;-55
2022/10/20 05:04:47;;;;;;;;;;;;;;;22.03;50.45;102026.58;105687;1283;20202;-55
2022/10/20 05:07:14;;;;;;;;;3.00;3.00;;;;;22.03;50.60;102030.23;105730;1289;20528;-56
2022/10/20 05:09:42;;;;;;;;;3.00;3.00;;;;;22.03;50.56;102033.36;105666;1282;19268;-56
2022/10/20 05:12:09;;;;;;;;;3.00;3.00;;;;;22.02;50.58;102031.77;105651;1297;20201;-56
2022/10/20 05:14:36;;;;;;;;;2.00;2.00;;;;;22.03;50.49;102032.82;105713;1282;18137;-57
2022/10/20 05:17:03;;;;;;;;;4.00;3.00;;;;;22.02;50.53;102033.27;105601;1282;20030;-54
2022/10/20 05:19:30;;;;;;;;;4.00;3.00;;;;;22.02;50.43;102033.97;105663;1289;18690;-55
2022/10/20 05:21:58;;;;;;;;;3.50;2.50;;;;;22.03;50.53;102037.36;105693;1292;19820;-52
2022/10/20 05:24:25;;;;;;;;;3.00;3.00;;;;;22.06;50.28;102037.27;105650;1297;19223;-54
2022/10/20 05:26:52;;;;;;;;;4.50;4.50;;;;;22.08;50.43;102036.83;105681;1272;22791;-57
2022/10/20 05:29:19;;;;;;;;;5.00;5.00;;;;;22.09;50.63;102042.91;105727;1291;19605;-55
2022/10/20 05:31:47;;;;;;;;;;;;;;;22.10;50.93;102042.69;105521;1282;20184;-54
2022/10/20 05:34:14;;;;;;;;;3.00;3.00;;;;;22.10;50.75;102041.70;105675;1303;22046;-57
2022/10/20 05:36:41;;;;;;;;;4.00;4.00;;;;;22.11;50.92;102045.62;105678;1291;19588;-55
2022/10/20 05:39:08;;;;;;;;;5.00;4.50;;;;;22.13;51.37;102049.63;105654;1275;17791;-53
2022/10/20 05:41:36;;;;;;;;;6.00;5.00;;;;;22.14;51.61;102048.47;105687;1282;20095;-57
2022/10/20 05:44:03;;;;;;;;;6.00;6.00;;;;;22.17;52.24;102053.98;105656;1297;19078;-53
2022/10/20 05:46:30;;;;;;;;;5.50;5.50;;;;;22.18;52.50;102057.05;105686;1291;18845;-56
2022/10/20 05:48:57;;;;;;;;;3.00;3.00;;;;;22.17;52.73;102055.98;105710;1286;20811;-54
2022/10/20 05:51:25;;;;;;;;;5.00;5.00;;;;;22.17;52.58;102056.70;105621;1275;21690;-60
2022/10/20 05:53:52;;;;;;;;;7.00;6.00;;;;;22.18;52.67;102056.45;105523;1281;21855;-55
2022/10/20 05:56:19;;;;;;;;;5.00;5.00;;;;;22.18;52.54;102062.10;105646;1282;18480;-55
2022/10/20 05:58:47;;;;;;;;;3.00;3.00;;;;;22.18;52.63;102061.54;105514;1283;21997;-56
2022/10/20 06:01:16;;;;;;;;;6.00;6.00;;;;;22.17;52.82;102067.63;105650;1292;19501;-55
2022/10/20 06:03:43;;;;;;;;;5.00;5.00;;;;;22.17;52.77;102070.18;105644;1275;22361;-56
2022/10/20 06:06:10;;;;;;;;;5.00;5.00;;;;;22.17;52.51;102074.55;105582;1296;19715;-57
2022/10/20 06:08:37;;;;;;;;;6.00;6.00;;;;;22.15;52.83;102077.84;105559;1297;17898;-57
2022/10/20 06:11:04;;;;;;;;;7.00;6.00;;;;;22.14;52.78;102077.02;105567;1289;20612;-56
2022/10/20 06:13:32;;;;;;;;;5.50;5.00;;;;;22.13;52.46;102077.83;105665;1275;19816;-56
2022/10/20 06:15:59;;;;;;;;;7.00;6.00;;;;;22.14;52.38;102078.89;105530;1304;18131;-54
2022/10/20 06:18:26;;;;;;;;;7.00;6.00;;;;;22.13;52.26;102081.66;105528;1297;18723;-54
2022/10/20 06:20:54;;;;;;;;;6.00;6.00;;;;;22.14;52.55;102081.45;105608;1275;20044;-56
2022/10/20 06:23:21;;;;;;;;;7.00;7.00;;;;;22.15;52.38;102080.58;105642;1279;17978;-55
2022/10/20 06:25:48;;;;;;;;;9.50;6.00;;;;;22.17;52.23;102082.60;105472;1282;18828;-56
2022/10/20 06:28:15;;;;;;;;;9.00;7.00;;;;;22.17;52.21;102084.79;105752;1289;19957;-55
2022/10/20 06:30:43;;;;;;;;;6.00;6.00;;;;;22.17;52.33;102083.49;105650;1289;20529;-56
2022/10/20 06:33:11;;;;;;;;;7.00;6.00;;;;;22.18;52.30;102085.08;105638;1285;18511;-56
2022/10/20 06:35:38;;;;;;;;;9.00;9.00;;;;;22.18;52.21;102088.72;105614;1282;18187;-57
2022/10/20 06:38:05;;;;;;;;;9.00;7.00;;;;;22.18;52.29;102088.70;105681;1297;19297;-53
2022/10/20 06:40:33;;;;;;;;;6.50;6.00;;;;;22.18;52.35;102095.20;105641;1282;20110;-55
2022/10/20 06:43:00;;;;;;;;;11.00;11.00;;;;;22.18;52.36;102091.99;105646;1297;18127;-55
2022/10/20 06:45:27;;;;;;;;;7.00;7.00;;;;;22.19;52.39;102094.62;105670;1289;18305;-58
2022/10/20 06:47:54;;;;;;;;;15.00;15.00;;;;;22.20;52.33;102096.16;105633;1300;20131;-56
2022/10/20 06:50:22;;;;;;;;;11.00;10.00;;;;;22.22;51.97;102093.52;105643;1282;18245;-57
2022/10/20 06:52:49;;;;;;;;;18.00;17.00;;;;;22.24;51.91;102090.81;105660;1289;19807;-53
2022/10/20 06:55:16;;;;;;;;;17.00;14.00;;;;;22.26;51.99;102092.98;105695;1297;18487;-55
2022/10/20 06:57:43;;;;;;;;;20.00;20.00;;;;;22.29;51.82;102097.21;105636;1281;20153;-56
2022/10/20 07:00:11;;;;;;;;;;;;;;;22.30;51.51;102096.20;105667;1275;18004;-56
2022/10/20 07:02:38;;;;;;;;;19.00;15.00;;;;;22.29;51.67;102098.09;105651;1282;19255;-55
2022/10/20 07:05:05;;;;;;;;;20.00;17.00;;;;;22.30;51.74;102103.89;105698;1297;22487;-56
2022/10/20 07:07:33;;;;;;;;;19.50;17.00;;;;;22.30;51.55;102106.98;105649;1285;19551;-57
2022/10/20 07:10:00;;;;;;;;;35.00;34.50;;;;;22.33;51.48;102118.27;105521;1283;20161;-56
2022/10/20 07:12:27;;;;;;;;;14.50;14.00;;;;;22.36;51.39;102116.92;105454;1275;21534;-58
2022/10/20 07:14:54;;;;;;;;;23.00;23.00;;;;;22.37;51.42;102114.99;105635;1295;18221;-56
2022/10/20 07:17:21;;;;;;;;;15.00;15.00;;;;;22.39;51.48;102113.30;105631;1296;20418;-55
2022/10/20 07:19:49;;;;;;;;;18.00;18.00;;;;;22.42;51.42;102114.30;105637;1291;20081;-58
2022/10/20 07:22:16;;;;;;;;;10.00;9.00;;;;;22.47;51.11;102117.23;105599;1282;19558;-57
2022/10/20 07:24:43;;;;;;;;;14.00;13.00;;;;;22.53;51.38;102123.33;105600;1275;20242;-57
2022/10/20 07:27:10;;;;;;;;;14.00;13.00;;;;;22.57;51.22;102118.95;105629;1291;18587;-57
2022/10/20 07:29:38;;;;;;;;;9.00;9.00;;;;;22.60;50.99;102119.88;105629;1275;18000;-57
2022/10/20 07:32:05;;;;;;;;;10.00;10.00;;;;;22.65;50.89;102123.74;105638;1282;19492;-56
2022/10/20 07:34:32;;;;;;;;;9.00;9.00;;;;;22.69;50.66;102121.94;105634;1275;23128;-56
2022/10/20 07:36:59;;;;;;;;;10.00;10.00;;;;;22.72;50.44;102126.14;105614;1282;19317;-57
2022/10/20 07:39:26;;;;;;;;;12.00;11.00;;;;;22.71;50.60;102127.33;105632;1282;18807;-56
2022/10/20 07:41:54;;;;;;;;;9.00;9.00;;;;;22.74;50.34;102128.78;105662;1289;19125;-55
2022/10/20 07:44:21;;;;;;;;;11.00;11.00;;;;;22.73;50.21;102131.92;105615;1289;21627;-53
2022/10/20 07:46:48;;;;;;;;;14.00;11.50;;;;;22.75;50.09;102135.14;105608;1281;18509;-56
2022/10/20 07:49:16;;;;;;;;;14.00;11.00;;;;;22.78;50.08;102131.39;105588;1297;18327;-54
2022/10/20 07:51:43;;;;;;;;;10.00;10.00;;;;;22.78;49.91;102135.19;105465;1289;17994;-56
2022/10/20 07:54:11;;;;;;;;;11.00;10.00;;;;;22.81;49.99;102132.77;105469;1297;19638;-57
2022/10/20 07:56:38;;;;;;;;;11.50;11.50;;;;;22.84;49.97;102131.55;105604;1275;18466;-55
2022/10/20 07:59:05;;;;;;;;;12.50;10.50;;;;;22.86;49.92;102130.91;105561;1297;17975;-54
2022/10/20 08:01:33;;;;;;;;;9.00;9.00;;;;;22.88;49.90;102126.14;105483;1282;118807;-56
2022/10/20 08:04:00;;;;;;;;;14.00;13.00;;;;;22.91;49.74;102132.05;105552;1281;20301;-55
2022/10/20 08:06:27;;;;;;;;;14.50;12.50;;;;;22.92;49.60;102135.02;105555;1275;18001;-55
2022/10/20 08:08:54;;;;;;;;;18.50;16.00;;;;;22.91;48.84;102137.55;105535;1282;18844;-57
2022/10/20 08:11:22;;;;;;;;;19.00;18.00;;;;;22.82;47.52;102138.39;105462;1282;20038;-58
2022/10/20 08:13:49;;;;;;;;;19.00;17.50;;;;;22.76;46.47;102135.02;105401;1282;20699;-57
2022/10/20 08:16:17;;;;;;;;;22.50;19.00;;;;;22.75;45.64;102139.85;105357;1289;18683;-57
2022/10/20 08:18:44;;;;;;;;;18.00;18.00;;;;;22.75;44.86;102138.41;105329;1289;19992;-56
2022/10/20 08:21:11;;;;;;;;;23.00;20.00;;;;;22.81;44.27;102136.16;105333;1282;22858;-55
2022/10/20 08:23:39;;;;;;;;;20.00;19.00;;;;;22.87;43.44;102127.17;105227;1279;20041;-56
2022/10/20 08:26:06;;;;;;;;;19.00;17.00;;;;;22.90;42.74;102123.26;105502;1282;18534;-56
2022/10/20 08:28:33;;;;;;;;;18.00;18.00;;;;;22.90;42.32;102120.52;105451;1282;18008;-55
2022/10/20 08:31:00;;;;;;;;;21.00;18.00;;;;;22.89;42.13;102119.72;105516;1283;21714;-56
2022/10/20 08:33:28;;;;;;;;;18.00;16.00;;;;;22.87;42.01;102120.63;105364;1278;20316;-56
2022/10/20 08:35:55;;;;;;;;;23.00;18.00;;;;;22.88;41.56;102119.61;105411;1282;18020;-56
2022/10/20 08:38:22;;;;;;;;;21.50;20.00;;;;;22.90;41.47;102120.55;105411;1282;18954;-55
2022/10/20 08:40:49;;;;;;;;;33.00;28.00;;;;;22.94;40.99;102117.95;105421;1281;21982;-56
2022/10/20 08:43:17;;;;;;;;;29.00;25.00;;;;;22.97;40.71;102115.05;105533;1275;18003;-55
2022/10/20 08:45:44;;;;;;;;;22.00;20.00;;;;;23.02;40.59;102116.58;105504;1275;18467;-56
2022/10/20 08:48:11;;;;;;;;;24.00;19.00;;;;;23.01;40.65;102117.91;105523;1282;20266;-53
2022/10/20 08:50:38;;;;;;;;;20.00;20.00;;;;;22.93;40.71;102113.50;105555;1282;18322;-56
2022/10/20 08:53:06;;;;;;;;;18.00;18.00;;;;;22.96;40.78;102114.66;105458;1281;21615;-57
2022/10/20 08:55:33;;;;;;;;;19.00;18.00;;;;;22.96;40.68;102112.39;105426;1282;18489;-56
2022/10/20 08:58:01;;;;;;;;;19.00;16.00;;;;;22.94;40.33;102110.63;105539;1291;19738;-55
2022/10/20 09:00:29;;;;;;;;;18.00;16.00;;;;;22.92;40.54;102110.24;105472;1289;21824;-52
2022/10/20 09:02:57;;;;;;;;;15.00;15.00;;;;;22.91;40.53;102113.35;105445;1278;20665;-55
2022/10/20 09:05:24;;;;;;;;;18.00;14.00;;;;;22.80;40.73;102112.20;105491;1281;21950;-56
2022/10/20 09:07:51;;;;;;;;;17.00;15.00;;;;;22.74;40.78;102113.61;105451;1275;18823;-56
2022/10/20 09:10:18;;;;;;;;;21.00;19.00;;;;;22.65;40.78;102108.81;105461;1275;18465;-55
2022/10/20 09:12:46;;;;;;;;;18.00;15.00;;;;;22.56;40.02;102105.06;105520;1281;20045;-52
2022/10/20 09:15:13;;;;;;;;;22.00;19.50;;;;;22.50;40.02;102100.02;105484;1298;20283;-55
2022/10/20 09:17:40;;;;;;;;;13.00;13.00;;;;;22.51;40.60;102098.98;105437;1297;19370;-58
2022/10/20 09:20:07;;;;;;;;;13.00;12.00;;;;;22.54;40.78;102094.67;105346;1282;19705;-58
2022/10/20 09:22:35;;;;;;;;;14.00;14.00;;;;;22.59;41.15;102095.64;105318;1275;18486;-56
2022/10/20 09:25:02;;;;;;;;;14.00;14.00;;;;;22.62;41.54;102095.16;105443;1293;20174;-58
2022/10/20 09:27:29;;;;;;;;;14.00;11.00;;;;;22.66;42.25;102090.88;105397;1282;18030;-56
2022/10/20 09:29:56;;;;;;;;;11.00;11.00;;;;;22.62;42.28;102095.30;105401;1275;18572;-55
2022/10/20 09:32:24;;;;;;;;;15.00;13.00;;;;;22.58;42.46;102091.83;105508;1297;19629;-56
2022/10/20 09:34:51;;;;;;;;;;;;;;;22.52;41.32;102091.40;105487;1284;19688;-56
2022/10/20 09:37:18;;;;;;;;;13.00;9.00;;;;;22.47;40.70;102088.08;105628;1289;20282;-56
2022/10/20 09:39:45;;;;;;;;;;;;;;;22.43;40.07;102084.11;105506;1290;17913;-54
2022/10/20 09:42:13;;;;;;;;;14.00;11.00;;;;;22.40;39.63;102085.10;105543;1282;22692;-56
2022/10/20 09:44:40;;;;;;;;;9.00;7.00;;;;;22.39;39.34;102088.88;105549;1297;18651;-54
2022/10/20 09:47:07;;;;;;;;;10.00;9.00;;;;;22.33;39.04;102079.88;105442;1298;18553;-55
2022/10/20 09:49:34;;;;;;;;;9.00;9.00;;;;;22.34;39.10;102077.35;105514;1289;17963;-55
2022/10/20 09:52:02;;;;;;;;;9.00;8.00;;;;;22.34;39.10;102077.50;105530;1279;21854;-55
2022/10/20 09:54:29;;;;;;;;;8.00;7.00;;;;;22.31;38.68;102074.05;105532;1283;18138;-55
2022/10/20 09:56:56;;;;;;;;;11.00;10.00;;;;;22.26;38.64;102072.54;105529;1301;17767;-55
2022/10/20 09:59:23;;;;;;;;;10.00;10.00;;;;;22.28;38.64;102069.98;105442;1293;20348;-56
2022/10/20 10:01:51;;;;;;;;;9.00;7.00;;;;;22.27;38.31;102070.63;105474;1298;18853;-57
2022/10/20 10:04:18;;;;;;;;;7.00;6.00;;;;;22.25;38.26;102068.13;105578;1291;19442;-56
2022/10/20 10:06:45;;;;;;;;;6.00;6.00;;;;;22.18;38.05;102067.05;105491;1300;18482;-55
2022/10/20 10:09:13;;;;;;;;;5.50;5.00;;;;;22.22;38.41;102068.08;105493;1289;18438;-57
2022/10/20 10:11:40;;;;;;;;;7.00;7.00;;;;;22.27;38.68;102061.75;105452;1291;19412;-56
2022/10/20 10:14:07;;;;;;;;;10.00;7.00;;;;;22.33;39.11;102062.70;105405;1290;18692;-56
2022/10/20 10:16:34;;;;;;;;;;;;;;;22.37;39.25;102067.77;105547;1289;22109;-57
2022/10/20 10:19:01;;;;;;;;;6.00;5.00;;;;;22.38;39.44;102062.00;105532;1275;18944;-56
2022/10/20 10:21:29;;;;;;;;;5.00;5.00;;;;;22.41;39.83;102057.04;105515;1275;20984;-56
2022/10/20 10:23:56;;;;;;;;;6.00;6.00;;;;;22.42;40.05;102056.01;105588;1275;18133;-56
2022/10/20 10:26:23;;;;;;;;;5.00;5.00;;;;;22.43;40.44;102051.54;105465;1275;20414;-57
2022/10/20 10:28:51;;;;;;;;;6.00;6.00;;;;;22.42;40.81;102044.00;105577;1281;19818;-55
2022/10/20 10:31:18;;;;;;;;;6.00;5.00;;;;;22.42;41.13;102046.39;105626;1281;21017;-56
2022/10/20 10:33:45;;;;;;;;;5.00;4.00;;;;;22.42;41.68;102045.65;105571;1275;20558;-53
2022/10/20 10:36:12;;;;;;;;;4.00;4.00;;;;;22.43;41.77;102043.52;105602;1289;22026;-54
2022/10/20 10:38:40;;;;;;;;;6.00;5.00;;;;;22.44;41.98;102038.33;105582;1275;18143;-55
2022/10/20 10:41:07;;;;;;;;;3.00;3.00;;;;;22.44;42.34;102032.92;105558;1281;17755;-57
2022/10/20 10:43:34;;;;;;;;;5.00;5.00;;;;;22.42;42.30;102030.32;105545;1275;18701;-52
2022/10/20 10:46:01;;;;;;;;;;;;;;;22.43;42.67;102034.63;105522;1275;19311;-56
2022/10/20 10:48:29;;;;;;;;;2.00;2.00;;;;;22.43;42.99;102032.45;105621;1281;17457;-55
2022/10/20 10:50:56;;;;;;;;;3.00;3.00;;;;;22.43;43.12;102024.05;105637;1282;20013;-55
2022/10/20 10:53:23;;;;;;;;;5.00;5.00;;;;;22.44;43.33;102022.00;105582;1276;20266;-56
2022/10/20 10:55:51;;;;;;;;;5.00;3.00;;;;;22.43;43.34;102016.59;105595;1282;19308;-58
2022/10/20 10:58:18;;;;;;;;;3.00;3.00;;;;;22.44;43.47;102016.09;105695;1289;20479;-55
2022/10/20 11:00:45;;;;;;;;;3.00;3.00;;;;;22.43;43.41;102016.59;105565;1282;21978;-56
2022/10/20 11:03:12;;;;;;;;;3.00;3.00;;;;;22.42;43.65;102011.70;105585;1281;19281;-56
2022/10/20 11:05:40;;;;;;;;;3.00;3.00;;;;;22.42;43.74;102008.32;105587;1282;20066;-56
2022/10/20 11:08:07;;;;;;;;;3.00;3.00;;;;;22.41;43.95;102004.55;105586;1289;22870;-56
2022/10/20 11:10:34;;;;;;;;;2.00;2.00;;;;;22.39;44.02;102002.48;105582;1297;22111;-58
2022/10/20 11:13:01;;;;;;;;;3.00;3.00;;;;;22.40;43.90;102000.98;105567;1289;21418;-54
2022/10/20 11:15:29;;;;;;;;;4.00;4.00;;;;;22.39;44.04;101994.02;105550;1289;18479;-55